createdAt,value
2022-09-02T00:00:20.525Z,2.13
2022-09-02T00:02:50.674Z,2.00
2022-09-02T00:05:21.871Z,2.13
2022-09-02T00:07:50.247Z,1.92
2022-09-02T00:10:18.672Z,2.25
2022-09-02T00:12:47.776Z,2.20
2022-09-02T00:15:17.585Z,2.97
2022-09-02T00:17:45.972Z,4.75
2022-09-02T00:20:14.540Z,3.00
2022-09-02T00:22:43.257Z,2.40
2022-09-02T00:25:11.696Z,2.17
2022-09-02T00:27:40.113Z,2.28
2022-09-02T00:30:08.901Z,2.72
2022-09-02T00:32:38.658Z,2.45
2022-09-02T00:35:07.471Z,2.00
2022-09-02T00:37:36.056Z,2.38
2022-09-02T00:40:05.342Z,2.20
2022-09-02T00:42:35.082Z,2.45
2022-09-02T00:45:04.982Z,2.45
2022-09-02T00:47:33.373Z,2.20
2022-09-02T00:50:03.675Z,2.28
2022-09-02T00:52:35.853Z,2.25
2022-09-02T00:55:05.906Z,2.25
2022-09-02T00:57:39.650Z,2.20
2022-09-02T01:02:37.455Z,2.10
2022-09-02T01:05:09.117Z,2.05
2022-09-02T01:07:40.131Z,2.47
2022-09-02T01:10:09.638Z,2.00
2022-09-02T01:12:38.407Z,2.20
2022-09-02T01:15:08.135Z,2.65
2022-09-02T01:17:37.072Z,2.20
2022-09-02T01:20:08.749Z,2.40
2022-09-02T01:22:38.487Z,2.22
2022-09-02T01:25:08.094Z,2.47
2022-09-02T01:27:36.791Z,2.47
2022-09-02T01:30:06.348Z,2.33
2022-09-02T01:32:34.836Z,2.13
2022-09-02T01:35:03.220Z,2.38
2022-09-02T01:37:32.260Z,2.60
2022-09-02T01:40:02.395Z,2.30
2022-09-02T01:42:30.952Z,2.42
2022-09-02T01:44:59.326Z,2.50
2022-09-02T01:47:28.746Z,2.58
2022-09-02T01:49:57.379Z,2.42
2022-09-02T01:52:27.027Z,2.25
2022-09-02T01:54:55.503Z,2.47
2022-09-02T01:57:25.353Z,2.28
2022-09-02T01:59:54.034Z,2.10
2022-09-02T02:02:22.924Z,2.70
2022-09-02T02:04:51.636Z,2.15
2022-09-02T02:07:22.601Z,2.38
2022-09-02T02:09:51.561Z,2.20
2022-09-02T02:12:19.973Z,2.30
2022-09-02T02:14:49.787Z,2.35
2022-09-02T02:17:18.231Z,2.50
2022-09-02T02:19:46.640Z,2.28
2022-09-02T02:22:15.116Z,2.30
2022-09-02T02:24:43.533Z,2.40
2022-09-02T02:27:12.053Z,2.40
2022-09-02T02:29:40.477Z,2.50
2022-09-02T02:32:10.317Z,2.92
2022-09-02T02:34:40.241Z,2.40
2022-09-02T02:37:08.902Z,2.75
2022-09-02T02:39:37.290Z,2.65
2022-09-02T02:42:05.904Z,2.30
2022-09-02T02:44:34.424Z,2.38
2022-09-02T02:47:03.185Z,2.60
2022-09-02T02:49:32.913Z,2.33
2022-09-02T02:52:01.298Z,2.63
2022-09-02T02:54:35.085Z,2.40
2022-09-02T02:57:04.823Z,2.85
2022-09-02T02:59:33.197Z,2.42
2022-09-02T03:02:01.751Z,2.70
2022-09-02T03:04:30.294Z,2.78
2022-09-02T03:07:00.555Z,2.80
2022-09-02T03:09:28.963Z,3.10
2022-09-02T03:11:57.949Z,2.70
2022-09-02T03:14:26.628Z,2.90
2022-09-02T03:16:55.061Z,2.75
2022-09-02T03:19:24.414Z,2.65
2022-09-02T03:21:52.811Z,2.88
2022-09-02T03:24:23.065Z,2.45
2022-09-02T03:26:51.469Z,2.55
2022-09-02T03:29:19.985Z,2.67
2022-09-02T03:31:48.518Z,2.40
2022-09-02T03:34:16.915Z,2.47
2022-09-02T03:36:45.335Z,2.20
2022-09-02T03:39:14.490Z,2.50
2022-09-02T03:41:44.381Z,2.50
2022-09-02T03:44:12.914Z,2.55
2022-09-02T03:46:41.335Z,2.53
2022-09-02T03:49:09.755Z,2.67
2022-09-02T03:51:41.761Z,2.78
2022-09-02T03:54:10.562Z,2.58
2022-09-02T03:56:39.022Z,2.40
2022-09-02T03:59:09.728Z,2.40
2022-09-02T04:01:38.429Z,2.28
2022-09-02T04:04:07.573Z,2.70
2022-09-02T04:06:36.234Z,2.92
2022-09-02T04:09:04.710Z,2.45
2022-09-02T04:11:33.179Z,2.42
2022-09-02T04:14:01.689Z,2.38
2022-09-02T04:16:31.502Z,2.50
2022-09-02T04:19:01.678Z,2.85
2022-09-02T04:21:30.707Z,2.45
2022-09-02T04:23:59.148Z,2.42
2022-09-02T04:26:28.829Z,2.60
2022-09-02T04:28:57.282Z,2.22
2022-09-02T04:31:28.857Z,2.90
2022-09-02T04:33:58.678Z,2.50
2022-09-02T04:36:29.028Z,2.47
2022-09-02T04:38:59.768Z,2.60
2022-09-02T04:41:30.746Z,2.40
2022-09-02T04:44:00.272Z,2.45
2022-09-02T04:46:34.557Z,2.53
2022-09-02T04:49:04.634Z,2.70
2022-09-02T04:51:33.051Z,2.90
2022-09-02T04:54:02.310Z,2.88
2022-09-02T04:56:31.879Z,3.13
2022-09-02T04:59:00.588Z,2.80
2022-09-02T05:01:30.942Z,2.72
2022-09-02T05:03:59.706Z,2.90
2022-09-02T05:06:30.328Z,8.27
2022-09-02T05:08:59.644Z,9.38
2022-09-02T05:11:29.495Z,8.68
2022-09-02T05:13:59.079Z,9.23
2022-09-02T05:16:28.917Z,6.50
2022-09-02T05:18:57.342Z,6.47
2022-09-02T05:21:25.785Z,6.10
2022-09-02T05:23:55.723Z,5.60
2022-09-02T05:26:24.132Z,4.43
2022-09-02T05:28:52.613Z,2.90
2022-09-02T05:31:22.050Z,2.67
2022-09-02T05:33:50.823Z,3.28
2022-09-02T05:36:21.128Z,2.72
2022-09-02T05:38:50.373Z,2.67
2022-09-02T05:41:23.454Z,3.13
2022-09-02T05:43:51.973Z,2.67
2022-09-02T05:46:22.336Z,2.58
2022-09-02T05:49:10.101Z,2.70
2022-09-02T05:51:42.988Z,2.75
2022-09-02T05:54:12.730Z,2.80
2022-09-02T05:56:45.174Z,2.95
2022-09-02T05:59:14.275Z,2.67
2022-09-02T06:01:43.249Z,2.58
2022-09-02T06:04:11.738Z,2.55
2022-09-02T06:06:40.174Z,2.58
2022-09-02T06:09:09.571Z,2.40
2022-09-02T06:11:39.911Z,2.33
2022-09-02T06:14:10.070Z,2.08
2022-09-02T06:16:39.751Z,1.90
2022-09-02T06:19:08.281Z,1.90
2022-09-02T06:21:39.851Z,2.40
2022-09-02T06:24:08.572Z,2.08
2022-09-02T06:26:37.321Z,1.88
2022-09-02T06:29:05.971Z,2.35
2022-09-02T06:31:36.818Z,1.85
2022-09-02T06:34:05.274Z,2.15
2022-09-02T06:36:34.931Z,2.08
2022-09-02T06:39:03.284Z,1.63
2022-09-02T06:41:33.508Z,1.83
2022-09-02T06:44:03.074Z,1.65
2022-09-02T06:46:32.242Z,1.70
2022-09-02T06:49:02.385Z,1.75
2022-09-02T06:51:32.528Z,1.63
2022-09-02T06:54:01.393Z,1.80
2022-09-02T06:56:30.285Z,2.17
2022-09-02T06:58:58.788Z,1.75
2022-09-02T07:01:29.326Z,1.67
2022-09-02T07:04:17.664Z,2.05
2022-09-02T07:06:48.836Z,1.67
2022-09-02T07:09:18.526Z,1.70
2022-09-02T07:11:48.138Z,1.80
2022-09-02T07:14:16.583Z,1.73
2022-09-02T07:16:45.986Z,1.60
2022-09-02T07:19:19.924Z,1.40
2022-09-02T07:21:50.758Z,1.85
2022-09-02T07:24:19.851Z,1.77
2022-09-02T07:26:48.491Z,1.30
2022-09-02T07:29:21.865Z,1.60
2022-09-02T07:31:50.462Z,1.40
2022-09-02T07:34:19.089Z,1.40
2022-09-02T07:36:48.602Z,1.42
2022-09-02T07:39:18.803Z,1.83
2022-09-02T07:41:49.136Z,1.42
2022-09-02T07:44:18.110Z,1.35
2022-09-02T07:46:46.965Z,1.65
2022-09-02T07:49:19.804Z,1.60
2022-09-02T07:51:51.061Z,1.90
2022-09-02T07:54:24.893Z,1.48
2022-09-02T07:56:53.289Z,1.40
2022-09-02T07:59:22.393Z,1.50
2022-09-02T08:01:51.596Z,1.50
2022-09-02T08:04:20.076Z,2.30
2022-09-02T08:06:48.508Z,1.50
2022-09-02T08:09:16.807Z,1.70
2022-09-02T08:11:47.652Z,1.52
2022-09-02T08:14:18.100Z,1.38
2022-09-02T08:16:48.954Z,1.33
2022-09-02T08:19:17.873Z,1.42
2022-09-02T08:21:46.332Z,1.73
2022-09-02T08:24:14.697Z,1.55
2022-09-02T08:26:43.084Z,1.35
2022-09-02T08:29:12.746Z,1.40
2022-09-02T08:31:41.361Z,1.48
2022-09-02T08:34:09.857Z,1.48
2022-09-02T08:36:39.853Z,1.17
2022-09-02T08:39:12.795Z,1.50
2022-09-02T08:41:49.861Z,1.40
2022-09-02T08:44:22.861Z,1.20
2022-09-02T08:46:52.964Z,1.30
2022-09-02T08:49:25.298Z,1.40
2022-09-02T08:52:01.008Z,1.20
2022-09-02T08:54:39.361Z,1.30
2022-09-02T08:57:07.867Z,1.13
2022-09-02T08:59:38.499Z,1.30
2022-09-02T09:02:11.254Z,1.00
2022-09-02T09:04:55.428Z,1.00
2022-09-02T09:07:30.718Z,1.42
2022-09-02T09:10:05.054Z,1.60
2022-09-02T09:12:39.471Z,1.10
2022-09-02T09:15:13.208Z,1.20
2022-09-02T09:17:44.630Z,1.10
2022-09-02T09:20:17.396Z,1.48
2022-09-02T09:22:45.704Z,1.30
2022-09-02T09:25:15.452Z,1.42
2022-09-02T09:27:46.076Z,1.20
2022-09-02T09:30:16.096Z,1.40
2022-09-02T09:32:46.295Z,1.20
2022-09-02T09:35:15.523Z,1.08
2022-09-02T09:37:45.743Z,1.30
2022-09-02T09:40:28.085Z,1.25
2022-09-02T09:42:58.015Z,1.33
2022-09-02T09:45:33.346Z,1.27
2022-09-02T09:48:23.873Z,1.20
2022-09-02T09:51:07.087Z,1.40
2022-09-02T09:53:36.155Z,1.23
2022-09-02T09:56:06.550Z,1.05
2022-09-02T09:58:36.057Z,0.98
2022-09-02T10:01:14.587Z,1.40
2022-09-02T10:03:44.178Z,0.90
2022-09-02T10:06:22.918Z,1.00
2022-09-02T10:08:52.851Z,1.02
2022-09-02T10:11:26.177Z,1.02
2022-09-02T10:13:58.667Z,1.13
2022-09-02T10:18:58.250Z,1.05
2022-09-02T10:21:32.324Z,1.10
2022-09-02T10:24:06.477Z,1.00
2022-09-02T10:26:39.897Z,0.75
2022-09-02T10:29:22.229Z,0.80
2022-09-02T10:31:56.205Z,0.90
2022-09-02T10:34:29.171Z,0.90
2022-09-02T10:37:07.988Z,1.55
2022-09-02T10:39:41.664Z,0.90
2022-09-02T10:42:12.913Z,1.17
2022-09-02T10:44:47.503Z,0.80
2022-09-02T10:47:22.686Z,0.90
2022-09-02T10:50:07.173Z,0.98
2022-09-02T10:52:42.620Z,0.90
2022-09-02T10:55:15.334Z,0.80
2022-09-02T10:57:47.561Z,0.93
2022-09-02T11:00:16.947Z,1.08
2022-09-02T11:02:48.671Z,0.85
2022-09-02T11:05:19.820Z,0.90
2022-09-02T11:07:52.192Z,0.85
2022-09-02T11:10:22.977Z,0.90
2022-09-02T11:12:54.750Z,0.98
2022-09-02T11:15:25.821Z,0.90
2022-09-02T11:17:58.959Z,1.10
2022-09-02T11:20:31.759Z,0.80
2022-09-02T11:23:03.641Z,0.80
2022-09-02T11:25:34.766Z,0.80
2022-09-02T11:28:07.951Z,0.82
2022-09-02T11:30:40.166Z,0.80
2022-09-02T11:33:13.106Z,0.80
2022-09-02T11:35:43.044Z,0.85
2022-09-02T11:38:19.325Z,0.90
2022-09-02T11:46:36.801Z,0.88
2022-09-02T11:49:23.308Z,1.10
2022-09-02T11:52:07.473Z,1.10
2022-09-02T11:54:39.025Z,0.73
2022-09-02T11:57:08.162Z,0.68
2022-09-02T11:59:51.350Z,0.70
2022-09-02T12:02:33.488Z,0.80
2022-09-02T12:05:16.777Z,0.80
2022-09-02T12:07:50.744Z,0.68
2022-09-02T12:10:35.097Z,1.00
2022-09-02T12:13:08.379Z,0.90
2022-09-02T12:15:38.518Z,0.82
2022-09-02T12:18:32.035Z,0.80
2022-09-02T12:21:18.699Z,1.67
2022-09-02T12:24:12.537Z,0.80
2022-09-02T12:26:59.445Z,0.93
2022-09-02T12:29:34.491Z,0.80
2022-09-02T12:32:02.856Z,1.00
2022-09-02T12:34:49.803Z,0.82
2022-09-02T12:37:33.058Z,0.73
2022-09-02T12:40:13.117Z,1.00
2022-09-02T12:42:46.629Z,0.82
2022-09-02T12:45:29.165Z,0.68
2022-09-02T12:48:00.796Z,0.73
2022-09-02T12:50:32.465Z,0.80
2022-09-02T12:53:29.819Z,1.10
2022-09-02T12:56:01.811Z,0.80
2022-09-02T12:58:33.787Z,1.13
2022-09-02T13:01:06.840Z,0.80
2022-09-02T13:03:42.400Z,0.90
2022-09-02T13:06:13.686Z,0.70
2022-09-02T13:08:55.713Z,1.00
2022-09-02T13:11:37.571Z,0.85
2022-09-02T13:14:24.791Z,0.73
2022-09-02T13:17:05.089Z,0.70
2022-09-02T13:19:48.877Z,0.80
2022-09-02T13:22:26.494Z,0.80
2022-09-02T13:25:13.549Z,1.00
2022-09-02T13:28:02.936Z,0.75
2022-09-02T13:30:39.039Z,1.00
2022-09-02T13:33:08.496Z,1.25
2022-09-02T13:35:39.020Z,1.42
2022-09-02T13:38:07.607Z,0.98
2022-09-02T13:40:36.774Z,0.80
2022-09-02T13:43:17.914Z,0.75
2022-09-02T13:45:47.127Z,0.80
2022-09-02T13:48:16.987Z,0.80
2022-09-02T13:50:46.224Z,1.77
2022-09-02T13:56:07.928Z,0.90
2022-09-02T13:58:39.218Z,1.08
2022-09-02T14:01:24.566Z,0.90
2022-09-02T14:03:53.975Z,0.90
2022-09-02T14:06:24.189Z,0.80
2022-09-02T14:08:56.731Z,0.70
2022-09-02T14:11:25.249Z,0.98
2022-09-02T14:13:55.438Z,0.90
2022-09-02T14:16:33.370Z,0.80
2022-09-02T14:19:08.563Z,0.82
2022-09-02T14:21:38.358Z,0.82
2022-09-02T14:24:07.021Z,0.95
2022-09-02T14:26:37.834Z,0.90
2022-09-02T14:29:08.694Z,0.90
2022-09-02T14:31:37.985Z,1.10
2022-09-02T14:34:06.571Z,1.00
2022-09-02T14:36:36.032Z,0.90
2022-09-02T14:39:13.140Z,0.90
2022-09-02T14:41:45.515Z,0.80
2022-09-02T14:44:17.474Z,1.00
2022-09-02T14:46:46.728Z,1.00
2022-09-02T14:49:20.492Z,0.82
2022-09-02T14:51:49.545Z,0.90
2022-09-02T14:54:32.768Z,0.90
2022-09-02T14:57:01.162Z,0.90
2022-09-02T14:59:30.846Z,1.00
2022-09-02T15:02:00.137Z,0.98
2022-09-02T15:04:28.563Z,0.82
2022-09-02T15:06:56.924Z,0.93
2022-09-02T15:09:25.254Z,1.10
2022-09-02T15:11:58.569Z,0.80
2022-09-02T15:14:29.954Z,0.70
2022-09-02T15:17:00.119Z,0.80
2022-09-02T15:19:28.440Z,0.90
2022-09-02T15:21:56.782Z,0.73
2022-09-02T15:24:25.100Z,0.80
2022-09-02T15:26:53.466Z,0.88
2022-09-02T15:29:26.931Z,0.95
2022-09-02T15:31:59.838Z,1.13
2022-09-02T15:34:29.727Z,0.88
2022-09-02T15:36:58.384Z,0.80
2022-09-02T15:39:27.735Z,0.90
2022-09-02T15:41:56.617Z,0.85
2022-09-02T15:44:25.962Z,0.60
2022-09-02T15:46:54.978Z,0.75
2022-09-02T15:49:24.635Z,0.75
2022-09-02T15:51:54.954Z,0.93
2022-09-02T15:54:25.109Z,0.75
2022-09-02T15:56:56.065Z,0.70
2022-09-02T15:59:24.709Z,0.60
2022-09-02T16:01:55.242Z,1.00
2022-09-02T16:04:24.094Z,0.63
2022-09-02T16:06:54.051Z,0.80
2022-09-02T16:09:22.373Z,0.73
2022-09-02T16:11:51.774Z,1.08
2022-09-02T16:14:20.974Z,0.80
2022-09-02T16:16:50.011Z,0.80
2022-09-02T16:19:21.059Z,0.70
2022-09-02T16:21:49.447Z,0.80
2022-09-02T16:24:21.404Z,0.90
2022-09-02T16:26:50.038Z,0.70
2022-09-02T16:29:18.753Z,0.90
2022-09-02T16:34:37.234Z,1.02
2022-09-02T16:37:05.816Z,0.63
2022-09-02T16:39:35.537Z,1.02
2022-09-02T16:42:04.643Z,0.95
2022-09-02T16:44:34.361Z,1.30
2022-09-02T16:47:03.084Z,0.90
2022-09-02T16:49:31.923Z,0.82
2022-09-02T16:52:00.454Z,0.90
2022-09-02T16:54:31.303Z,0.70
2022-09-02T16:57:02.134Z,0.90
2022-09-02T16:59:31.513Z,1.67
2022-09-02T17:02:00.004Z,1.67
2022-09-02T17:04:29.461Z,1.40
2022-09-02T17:06:58.070Z,1.10
2022-09-02T17:09:26.879Z,0.80
2022-09-02T17:11:55.217Z,1.05
2022-09-02T17:14:25.273Z,1.00
2022-09-02T17:16:53.745Z,1.00
2022-09-02T17:19:22.819Z,0.88
2022-09-02T17:21:51.873Z,0.70
2022-09-02T17:24:21.264Z,0.90
2022-09-02T17:26:51.146Z,1.10
2022-09-02T17:29:47.628Z,0.82
2022-09-02T17:32:10.632Z,0.90
2022-09-02T17:34:38.937Z,1.20
2022-09-02T17:37:08.150Z,1.58
2022-09-02T17:39:36.669Z,2.90
2022-09-02T17:42:06.402Z,2.60
2022-09-02T17:44:36.074Z,2.50
2022-09-02T17:47:05.975Z,1.20
2022-09-02T17:49:36.629Z,1.85
2022-09-02T17:52:05.463Z,1.67
2022-09-02T17:54:35.127Z,2.20
2022-09-02T17:57:10.587Z,2.78
2022-09-02T17:59:44.388Z,2.85
2022-09-02T18:02:33.323Z,2.95
2022-09-02T18:05:08.261Z,2.95
2022-09-02T18:07:42.022Z,2.22
2022-09-02T18:10:13.315Z,2.70
2022-09-02T18:12:41.621Z,2.65
2022-09-02T18:15:11.759Z,1.70
2022-09-02T18:17:42.989Z,1.70
2022-09-02T18:20:14.583Z,1.45
2022-09-02T18:22:48.461Z,1.38
2022-09-02T18:25:20.398Z,1.48
2022-09-02T18:27:55.203Z,1.48
2022-09-02T18:30:27.432Z,1.58
2022-09-02T18:33:08.284Z,1.60
2022-09-02T18:35:44.425Z,1.10
2022-09-02T18:38:18.187Z,1.33
2022-09-02T18:40:50.920Z,1.42
2022-09-02T18:43:23.350Z,1.17
2022-09-02T18:45:54.312Z,1.10
2022-09-02T18:48:25.484Z,1.02
2022-09-02T18:50:58.053Z,1.10
2022-09-02T18:53:28.289Z,1.17
2022-09-02T18:55:57.315Z,1.27
2022-09-02T18:58:31.689Z,1.30
2022-09-02T19:01:02.707Z,1.30
2022-09-02T19:03:34.183Z,1.20
2022-09-02T19:06:05.385Z,1.30
2022-09-02T19:08:34.118Z,1.50
2022-09-02T19:11:04.574Z,1.25
2022-09-02T19:13:36.514Z,1.10
2022-09-02T19:16:05.752Z,1.02
2022-09-02T19:18:34.169Z,1.00
2022-09-02T19:21:04.790Z,1.40
2022-09-02T19:23:33.973Z,1.00
2022-09-02T19:26:05.518Z,1.00
2022-09-02T19:28:33.937Z,1.20
2022-09-02T19:31:03.454Z,1.80
2022-09-02T19:33:32.596Z,1.20
2022-09-02T19:36:00.946Z,1.23
2022-09-02T19:38:30.728Z,1.48
2022-09-02T19:41:01.709Z,1.35
2022-09-02T19:43:30.051Z,1.27
2022-09-02T19:45:59.962Z,1.15
2022-09-02T19:48:28.388Z,1.08
2022-09-02T19:50:56.963Z,1.58
2022-09-02T19:53:30.389Z,1.80
2022-09-02T19:56:00.481Z,1.30
2022-09-02T19:58:28.827Z,1.33
2022-09-02T20:00:57.294Z,1.33
2022-09-02T20:03:25.707Z,1.77
2022-09-02T20:05:54.211Z,1.33
2022-09-02T20:08:24.357Z,1.63
2022-09-02T20:10:55.251Z,1.42
2022-09-02T20:13:25.754Z,1.10
2022-09-02T20:15:55.021Z,1.25
2022-09-02T20:18:24.655Z,1.30
2022-09-02T20:20:54.832Z,1.38
2022-09-02T20:23:23.624Z,1.40
2022-09-02T20:26:01.669Z,1.30
2022-09-02T20:28:34.915Z,1.38
2022-09-02T20:31:07.304Z,1.20
2022-09-02T20:33:38.583Z,1.40
2022-09-02T20:36:14.099Z,1.60
2022-09-02T20:38:56.473Z,1.50
2022-09-02T20:41:29.613Z,1.30
2022-09-02T20:44:16.722Z,1.40
2022-09-02T20:46:54.782Z,1.35
2022-09-02T20:49:29.693Z,1.58
2022-09-02T20:52:01.326Z,1.20
2022-09-02T20:54:36.420Z,1.48
2022-09-02T20:57:11.516Z,1.25
2022-09-02T20:59:43.912Z,1.20
2022-09-02T21:02:15.277Z,1.13
2022-09-02T21:04:45.704Z,1.20
2022-09-02T21:07:16.385Z,1.20
2022-09-02T21:09:48.514Z,1.50
2022-09-02T21:12:22.230Z,1.00
2022-09-02T21:17:25.544Z,1.40
2022-09-02T21:19:55.620Z,1.20
2022-09-02T21:22:26.765Z,1.35
2022-09-02T21:24:57.763Z,1.10
2022-09-02T21:27:28.336Z,0.85
2022-09-02T21:30:02.368Z,1.63
2022-09-02T21:32:35.968Z,1.08
2022-09-02T21:35:05.814Z,1.17
2022-09-02T21:37:36.678Z,1.35
2022-09-02T21:40:07.130Z,1.30
2022-09-02T21:42:43.163Z,1.27
2022-09-02T21:45:14.248Z,1.40
2022-09-02T21:47:51.021Z,0.90
2022-09-02T21:50:23.937Z,1.10
2022-09-02T21:53:00.433Z,1.10
2022-09-02T21:55:39.982Z,1.20
2022-09-02T21:58:17.008Z,1.02
2022-09-02T22:00:47.804Z,1.20
2022-09-02T22:03:21.056Z,1.20
2022-09-02T22:05:52.182Z,1.00
2022-09-02T22:08:25.572Z,1.30
2022-09-02T22:11:00.461Z,1.35
2022-09-02T22:13:31.764Z,1.25
2022-09-02T22:16:05.038Z,1.20
2022-09-02T22:21:08.152Z,1.38
2022-09-02T22:23:37.151Z,1.10
2022-09-02T22:26:11.944Z,1.30
2022-09-02T22:28:43.113Z,1.30
2022-09-02T22:31:12.575Z,1.50
2022-09-02T22:33:46.135Z,1.30
2022-09-02T22:36:24.658Z,1.23
2022-09-02T22:38:53.367Z,1.38
2022-09-02T22:41:27.053Z,1.10
2022-09-02T22:43:57.912Z,1.27
2022-09-02T22:46:48.424Z,1.15
2022-09-02T22:49:43.694Z,1.30
2022-09-02T22:52:40.415Z,1.25
2022-09-02T22:55:13.548Z,1.23
2022-09-02T22:57:46.517Z,1.27
2022-09-02T23:00:16.642Z,1.30
2022-09-02T23:02:49.358Z,1.23
2022-09-02T23:05:49.211Z,1.00
2022-09-02T23:08:20.481Z,1.48
2022-09-02T23:10:52.448Z,1.55
2022-09-02T23:13:26.921Z,1.00
2022-09-02T23:16:01.220Z,1.08
2022-09-02T23:18:35.215Z,1.33
2022-09-02T23:21:07.289Z,1.20
2022-09-02T23:23:42.028Z,1.42
2022-09-02T23:26:16.654Z,1.40
2022-09-02T23:28:52.454Z,1.50
2022-09-02T23:31:27.083Z,1.30
2022-09-02T23:34:00.647Z,1.20
2022-09-02T23:36:35.248Z,1.40
2022-09-02T23:39:09.621Z,1.40
2022-09-02T23:41:38.894Z,1.10
2022-09-02T23:44:08.748Z,1.52
2022-09-02T23:46:44.220Z,1.48
2022-09-02T23:49:16.060Z,1.20
2022-09-02T23:51:51.236Z,1.30
2022-09-02T23:54:30.288Z,1.42
2022-09-02T23:57:03.134Z,1.25
2022-09-02T23:59:40.426Z,1.30
